Accueil
METAR-TAF:

METAR-TAF

Aéroports :

Aéroport de Jersey

Jersey,

latitude: 49-13N, longitude: 002-12W, altitude: 84 m

Observation

Le bulletin a été fait il y a 26 minutes, à 11:50 UTC
Vent 7 kt de ouest, variant entre ouest/sud-ouest et nord/nord-ouest
Température 11°C
Humidité 54%
Pression 1025 hPa
Visibilité 10 km ou plus
Quelques nuages à une hauteur de 3500 ft

METAR: EGJJ 181150Z 28007KT 240V330 9999 FEW035 11/02 Q1025

Heure: 13:16 (12:16 UTC)

Prévision

Le bulletin a été fait il y a 1 heure et 17 minutes, à 10:59 UTC
Prévision valable du 18 à 12 UTC au 18 à 21 UTC
Vent 10 kt de nord/nord-ouest
Visibilité 10 km ou plus
Quelques nuages à une hauteur de 2200 ft
Evoluant progressivement
du 18 à 19 UTC au 18 à 21 UTC
Vent 6 kt de est

TAF: EGJJ 181059Z 1812/1821 34010KT 9999 FEW022 BECMG 1819/1821 08006KT

Observations et prévisions météorologiques de plus de 4000 aéroports (messages METAR et TAF).

Les stations disponibles sont représentées par des disques jaunes et rouges sur la carte.

Passer la souris dessus pour voir le nom de la station.

Cliquer dessus pour voir les observations et prévisions météorologiques.

Pour changer de carte: cliquez sur les boutons verts avec une croix noire pour zoomer, sur le bouton vert avec un tiret pour effectuer un zoom arrière, ou sur les flèches vertes pour les cartes adjacentes.


METAR-TAF: